Becks, United Kingdom
Current Conditions -  °F | °C
As of 6:20 PM on Wednesday 26 Nov 2014 (Local Time) from EGNM Reporting Station
Haze Haze  
Wind Chill: 40°   Ceiling: 300
Heat Index: 43°   Visibility: 2.1mi
Dew Point: 43°   Wind: 5mph
Humidity: 100%   Direction: 40°NE
Pressure: 29.83"   Gusts: NA
Location:  53.91°N, 1.94°W
Report Text: EGNM 261820Z 04004KT 360V090 3500 BR SCT002 BKN003 06/06 Q1010
Loading
Personal Weather Stations






























Interactive Weather Map New forecast layout! Learn more

10-Day Weather Forecast

Advertisements
Track Severe Weather on mobile